Time;durP1;ratioP1;P1;durP2;ratioP2;P2;SDS_P1;SDS_P2;PMS_P1;PMS_P2;Temp;Humidity;BMP_temperature;BMP_pressure;BME280_temperature;BME280_humidity;BME280_pressure;Samples;Min_cycle;Max_cycle;Signal;HPM_P1;HPM_P2
2022/01/23 00:01:18;;;;;;;39.08;19.92;;;;;;;4.79;100.00;103479.66;5049460;28;20067;-58
2022/01/23 00:03:47;;;;;;;37.72;20.08;;;;;;;4.78;100.00;103477.06;5073348;28;20383;-59
2022/01/23 00:06:16;;;;;;;37.80;20.13;;;;;;;4.79;100.00;103477.06;5076360;28;20060;-57
2022/01/23 00:08:45;;;;;;;35.83;19.80;;;;;;;4.80;100.00;103470.09;5093390;28;20513;-59
2022/01/23 00:11:14;;;;;;;36.85;19.65;;;;;;;4.81;100.00;103464.88;5080738;28;20044;-58
2022/01/23 00:19:14;;;;;;;36.30;19.85;;;;;;;4.82;100.00;103461.41;5071737;28;20075;-57
2022/01/23 00:21:42;;;;;;;40.30;22.05;;;;;;;4.82;100.00;103458.81;5080083;28;20047;-58
2022/01/23 00:32:29;;;;;;;44.10;22.73;;;;;;;4.82;100.00;103466.63;5092897;28;20048;-51
2022/01/23 00:34:57;;;;;;;37.95;20.60;;;;;;;4.78;100.00;103464.03;5092972;28;20487;-50
2022/01/23 00:37:25;;;;;;;36.50;21.25;;;;;;;4.74;100.00;103458.81;5092845;28;20047;-49
2022/01/23 00:39:53;;;;;;;41.05;21.25;;;;;;;4.76;100.00;103466.63;5092975;28;20055;-49
2022/01/23 00:42:21;;;;;;;37.90;21.35;;;;;;;4.79;100.00;103474.44;5091661;28;20406;-48
2022/01/23 00:45:05;;;;;;;37.03;20.58;;;;;;;4.80;100.00;103464.88;5093038;28;20509;-58
2022/01/23 00:47:33;;;;;;;40.33;21.40;;;;;;;4.80;100.00;103476.19;5092979;28;20048;-47
2022/01/23 00:50:01;;;;;;;39.63;21.70;;;;;;;4.81;100.00;103477.91;5091547;28;20047;-49
2022/01/23 00:52:29;;;;;;;38.28;21.80;;;;;;;4.82;100.00;103478.81;5092787;28;20510;-50
2022/01/23 00:55:00;;;;;;;39.13;21.70;;;;;;;4.81;100.00;103474.44;5092705;28;20506;-50
2022/01/23 00:57:28;;;;;;;39.17;21.60;;;;;;;4.81;100.00;103485.72;5092522;28;20048;-52
2022/01/23 00:59:57;;;;;;;40.40;22.65;;;;;;;4.81;100.00;103477.91;5092595;28;20126;-51
2022/01/23 01:02:25;;;;;;;39.47;20.55;;;;;;;4.82;100.00;103477.06;5092703;28;20440;-58
2022/01/23 01:04:53;;;;;;;40.50;21.90;;;;;;;4.81;100.00;103483.13;5092632;28;20435;-58
2022/01/23 01:07:22;;;;;;;39.75;23.35;;;;;;;4.81;100.00;103477.91;5092589;28;20055;-50
2022/01/23 01:09:52;;;;;;;41.10;21.63;;;;;;;4.81;100.00;103474.44;5092697;28;20189;-58
2022/01/23 01:12:26;;;;;;;41.42;21.83;;;;;;;4.80;100.00;103478.81;5092878;28;20817;-52
2022/01/23 01:15:12;;;;;;;40.95;21.95;;;;;;;4.80;100.00;103468.38;5092512;28;20371;-58
2022/01/23 01:30:12;;;;;;;40.40;22.92;;;;;;;4.72;100.00;103476.19;5092613;28;20109;-57
2022/01/23 01:31:37;;;;;;;43.20;24.00;;;;;;;4.80;100.00;103473.59;5092314;28;20044;-58
2022/01/23 01:34:10;;;;;;;42.45;23.38;;;;;;;4.80;100.00;103478.81;5092238;28;20055;-46
2022/01/23 01:36:46;;;;;;;38.47;22.23;;;;;;;4.79;100.00;103476.19;5092128;28;20548;-51
2022/01/23 01:39:18;;;;;;;46.25;25.23;;;;;;;4.65;100.00;103463.13;5090986;28;20048;-49
2022/01/23 01:41:47;;;;;;;43.03;23.20;;;;;;;4.70;100.00;103459.69;5092282;28;20051;-52
2022/01/23 01:44:16;;;;;;;45.15;24.63;;;;;;;4.70;100.00;103443.16;5090809;28;20135;-48
2022/01/23 01:46:45;;;;;;;47.65;24.92;;;;;;;4.72;100.00;103436.22;5092111;28;20040;-49
2022/01/23 01:49:15;;;;;;;42.42;24.13;;;;;;;4.73;100.00;103424.88;5093091;28;20094;-47
2022/01/23 01:51:44;;;;;;;45.70;25.25;;;;;;;4.73;100.00;103430.09;5096309;28;20119;-50
2022/01/23 01:54:15;;;;;;;44.83;24.02;;;;;;;4.73;100.00;103443.13;5096134;28;20089;-47
2022/01/23 01:56:50;;;;;;;44.33;24.60;;;;;;;4.61;100.00;103448.34;5095951;28;20055;-58
2022/01/23 01:59:46;;;;;;;45.38;24.55;;;;;;;4.68;100.00;103463.16;5096138;28;20055;-46
2022/01/23 02:10:38;;;;;;;42.22;22.73;;;;;;;4.71;100.00;103458.78;5095529;28;20056;-58
2022/01/23 02:13:10;;;;;;;44.88;24.02;;;;;;;4.70;100.00;103453.56;5095701;28;20055;-58
2022/01/23 02:16:17;;;;;;;43.33;24.58;;;;;;;4.67;100.00;103444.00;5095466;28;20044;-45
2022/01/23 02:52:16;;;;;;;43.08;24.20;;;;;;;4.74;100.00;103444.88;5074747;28;20040;-48
2022/01/23 02:54:58;;;;;;;43.53;23.17;;;;;;;4.76;100.00;103447.50;5080988;28;20085;-57
2022/01/23 02:57:51;;;;;;;45.88;24.05;;;;;;;4.76;100.00;103450.09;5090708;28;20055;-47
2022/01/23 03:00:23;;;;;;;42.50;23.92;;;;;;;4.71;100.00;103430.09;5073809;28;20049;-49
2022/01/23 03:02:53;;;;;;;43.13;24.00;;;;;;;4.72;100.00;103431.84;5074436;28;20052;-48
2022/01/23 03:05:35;;;;;;;41.30;22.08;;;;;;;4.76;100.00;103437.06;5074450;28;20586;-58
2022/01/23 03:08:18;;;;;;;42.80;23.52;;;;;;;4.75;100.00;103441.41;5078598;28;20078;-57
2022/01/23 03:10:59;;;;;;;41.42;23.20;;;;;;;4.76;100.00;103440.56;5094600;28;20055;-46
2022/01/23 03:13:50;;;;;;;46.15;23.38;;;;;;;4.74;100.00;103444.88;5092784;28;20044;-46
2022/01/23 03:24:58;;;;;;;43.95;23.50;;;;;;;4.77;100.00;103441.41;5033114;28;20057;-50
2022/01/23 03:27:53;;;;;;;46.50;23.08;;;;;;;4.74;100.00;103435.34;5073816;28;20048;-45
2022/01/23 03:30:24;;;;;;;40.30;22.08;;;;;;;4.75;100.00;103438.81;5074053;28;20052;-58
2022/01/23 03:32:54;;;;;;;46.92;23.33;;;;;;;4.77;100.00;103444.88;5074109;28;20056;-56
2022/01/23 03:35:23;;;;;;;41.22;23.05;;;;;;;4.77;100.00;103454.44;5073941;28;20109;-44
2022/01/23 03:37:51;;;;;;;42.88;22.90;;;;;;;4.76;100.00;103447.50;5073756;28;20048;-58
2022/01/23 03:40:20;;;;;;;40.88;22.67;;;;;;;4.77;100.00;103451.84;5073848;28;20124;-50
2022/01/23 03:42:56;;;;;;;42.30;23.70;;;;;;;4.78;100.00;103457.06;5073728;28;20557;-50
2022/01/23 03:45:55;;;;;;;42.80;23.05;;;;;;;4.79;100.00;103456.19;5073646;28;20048;-58
2022/01/23 03:51:15;;;;;;;40.67;21.38;;;;;;;4.76;100.00;103456.19;5073681;28;20056;-47
2022/01/23 03:53:43;;;;;;;42.13;22.13;;;;;;;4.74;100.00;103460.53;5073481;28;20056;-58
2022/01/23 03:56:11;;;;;;;42.75;22.88;;;;;;;4.73;100.00;103471.81;5073310;28;20430;-47
2022/01/23 03:58:40;;;;;;;44.40;22.75;;;;;;;4.71;100.00;103460.53;5073229;28;20048;-58
2022/01/23 04:01:08;;;;;;;41.30;21.95;;;;;;;4.72;100.00;103463.13;5073390;28;20067;-58
2022/01/23 04:03:39;;;;;;;42.65;21.88;;;;;;;4.75;100.00;103470.09;5073357;28;20048;-49
2022/01/23 04:06:07;;;;;;;42.92;22.52;;;;;;;4.72;100.00;103473.56;5073287;28;20052;-48
2022/01/23 04:08:35;;;;;;;41.17;21.02;;;;;;;4.73;100.00;103472.72;5073348;28;20071;-58
2022/01/23 04:11:05;;;;;;;42.20;21.35;;;;;;;4.72;100.00;103472.72;5073297;28;20053;-47
2022/01/23 04:13:42;;;;;;;42.13;22.80;;;;;;;4.70;100.00;103470.09;5072833;28;20099;-49
2022/01/23 04:16:31;;;;;;;41.88;22.00;;;;;;;4.73;100.00;103471.81;5073211;28;20040;-58
2022/01/23 04:33:23;;;;;;;41.17;21.70;;;;;;;4.73;100.00;103471.81;5072823;28;20065;-44
2022/01/23 05:01:01;;;;;;;42.20;23.35;;;;;;;4.70;100.00;103487.47;5072378;28;20094;-45
2022/01/23 05:06:27;;;;;;;40.10;21.73;;;;;;;4.67;100.00;103479.66;5072297;28;20426;-57
2022/01/23 05:08:55;;;;;;;39.90;21.58;;;;;;;4.65;100.00;103477.03;5072235;28;20040;-57
2022/01/23 05:11:24;;;;;;;38.25;20.60;;;;;;;4.66;100.00;103475.28;5072390;28;20495;-45
2022/01/23 05:13:52;;;;;;;42.50;22.50;;;;;;;4.65;100.00;103476.16;5072173;28;20048;-57
2022/01/23 05:16:20;;;;;;;40.13;21.80;;;;;;;4.66;100.00;103475.28;5072184;28;20048;-57
2022/01/23 05:18:48;;;;;;;41.58;22.25;;;;;;;4.62;100.00;103478.75;5072081;28;20051;-57
2022/01/23 05:21:44;;;;;;;40.42;21.88;;;;;;;4.58;100.00;103483.09;5073500;28;20060;-57
2022/01/23 05:24:13;;;;;;;41.33;21.85;;;;;;;4.55;100.00;103486.59;5073330;28;20063;-46
2022/01/23 05:26:45;;;;;;;44.05;22.17;;;;;;;4.57;100.00;103486.59;5072034;28;20495;-47
2022/01/23 05:29:14;;;;;;;37.00;21.48;;;;;;;4.59;100.00;103481.38;5072105;28;20047;-57
2022/01/23 05:31:43;;;;;;;40.58;21.98;;;;;;;4.61;100.00;103484.84;5071623;28;20044;-55
2022/01/23 05:34:11;;;;;;;43.55;21.95;;;;;;;4.61;100.00;103484.84;5071687;28;20036;-57
2022/01/23 05:36:39;;;;;;;39.00;21.05;;;;;;;4.61;100.00;103490.03;5071723;28;20045;-57
2022/01/23 05:39:07;;;;;;;41.63;21.88;;;;;;;4.63;100.00;103490.94;5072021;28;20065;-47
2022/01/23 05:41:36;;;;;;;37.08;20.90;;;;;;;4.62;100.00;103489.19;5070462;28;20052;-49
2022/01/23 05:44:05;;;;;;;39.90;21.85;;;;;;;4.61;100.00;103480.50;5072006;28;20055;-57
2022/01/23 05:46:33;;;;;;;42.08;21.00;;;;;;;4.61;100.00;103477.91;5072263;28;20459;-50
2022/01/23 05:49:01;;;;;;;41.97;21.52;;;;;;;4.59;100.00;103483.97;5070451;28;20056;-57
2022/01/23 05:51:29;;;;;;;42.92;22.67;;;;;;;4.54;100.00;103478.72;5071831;28;20040;-57
2022/01/23 05:53:57;;;;;;;39.60;21.38;;;;;;;4.54;100.00;103487.44;5071798;28;20045;-50
2022/01/23 05:56:25;;;;;;;38.47;21.17;;;;;;;4.53;100.00;103485.69;5071516;28;20049;-57
2022/01/23 05:58:55;;;;;;;40.10;20.88;;;;;;;4.55;100.00;103486.59;5071788;28;20048;-57
2022/01/23 06:01:23;;;;;;;37.67;20.23;;;;;;;4.59;100.00;103486.59;5070240;28;20052;-56
2022/01/23 06:03:51;;;;;;;40.25;20.85;;;;;;;4.58;100.00;103493.50;5071504;28;20492;-44
2022/01/23 06:06:23;;;;;;;40.28;21.67;;;;;;;4.58;100.00;103496.13;5071672;28;20109;-57
2022/01/23 06:08:51;;;;;;;38.78;20.50;;;;;;;4.53;100.00;103488.31;5071631;28;20048;-57
2022/01/23 06:11:19;;;;;;;41.15;21.17;;;;;;;4.52;100.00;103494.38;5071612;28;20053;-49
2022/01/23 06:13:47;;;;;;;43.17;22.25;;;;;;;4.50;100.00;103497.84;5071688;28;20483;-56
2022/01/23 06:16:17;;;;;;;37.83;20.25;;;;;;;4.51;100.00;103494.38;5071572;28;20391;-57
2022/01/23 06:18:46;;;;;;;39.28;20.90;;;;;;;4.50;100.00;103490.91;5071689;28;20095;-56
2022/01/23 06:21:19;;;;;;;40.03;21.20;;;;;;;4.51;100.00;103489.16;5071627;28;20052;-50
2022/01/23 06:23:54;;;;;;;;;;;;;;;4.48;100.00;103490.03;5072122;28;20056;-48
2022/01/23 06:26:23;;;;;;;39.85;21.13;;;;;;;4.40;100.00;103494.34;5071526;28;19965;-45
2022/01/23 06:28:57;;;;;;;43.42;21.58;;;;;;;4.40;100.00;103491.72;5071247;28;20478;-49
2022/01/23 06:31:27;;;;;;;43.10;22.73;;;;;;;4.38;100.00;103486.53;5071520;28;20052;-47
2022/01/23 06:33:55;;;;;;;37.58;20.10;;;;;;;4.40;100.00;103495.22;5071350;28;20044;-47
2022/01/23 06:36:23;;;;;;;43.58;21.00;;;;;;;4.40;100.00;103497.84;5073958;28;20514;-46
2022/01/23 06:38:51;;;;;;;40.72;22.83;;;;;;;4.42;100.00;103492.63;5074897;28;20040;-57
2022/01/23 06:41:20;;;;;;;41.45;20.98;;;;;;;4.42;100.00;103504.75;5075277;28;20052;-56
2022/01/23 06:43:48;;;;;;;45.08;22.40;;;;;;;4.40;100.00;103499.56;5073842;28;20056;-46
2022/01/23 06:46:17;;;;;;;44.67;21.70;;;;;;;4.37;100.00;103508.22;5074947;28;20506;-49
2022/01/23 06:48:46;;;;;;;42.03;21.88;;;;;;;4.38;100.00;103509.13;5073723;28;20087;-57
2022/01/23 06:51:14;;;;;;;40.13;21.25;;;;;;;4.41;100.00;103509.13;5075021;28;20571;-50
2022/01/23 06:53:43;;;;;;;43.55;22.70;;;;;;;4.39;100.00;103509.13;5074792;28;20083;-57
2022/01/23 06:56:11;;;;;;;44.05;22.55;;;;;;;4.37;100.00;103516.03;5074425;28;20064;-56
2022/01/23 06:58:39;;;;;;;40.38;20.85;;;;;;;4.38;100.00;103516.94;5074494;28;20046;-56
2022/01/23 07:01:08;;;;;;;46.42;21.92;;;;;;;4.38;100.00;103517.78;5074514;28;20090;-56
2022/01/23 07:03:37;;;;;;;39.78;21.67;;;;;;;4.43;100.00;103519.53;5074660;28;20052;-55
2022/01/23 07:06:06;;;;;;;41.40;21.13;;;;;;;4.42;100.00;103521.28;5074387;28;20060;-56
2022/01/23 07:08:54;;;;;;;41.65;22.25;;;;;;;4.43;100.00;103520.44;5074182;28;20102;-56
2022/01/23 07:11:22;;;;;;;39.75;21.83;;;;;;;4.40;100.00;103525.63;5074532;28;20052;-56
2022/01/23 07:13:50;;;;;;;41.80;21.15;;;;;;;4.40;100.00;103518.69;5074357;28;20410;-56
2022/01/23 07:16:19;;;;;;;43.25;23.35;;;;;;;4.46;100.00;103532.56;5074371;28;20047;-49
2022/01/23 07:18:47;;;;;;;45.63;23.52;;;;;;;4.40;100.00;103530.81;5074295;28;20045;-47
2022/01/23 07:21:17;;;;;;;45.38;23.40;;;;;;;4.41;100.00;103535.19;5073084;28;20071;-54
2022/01/23 07:23:50;;;;;;;41.35;21.55;;;;;;;4.43;100.00;103537.78;5074285;28;20062;-56
2022/01/23 07:26:21;;;;;;;45.28;23.08;;;;;;;4.44;100.00;103539.53;5074459;28;20091;-57
2022/01/23 07:28:52;;;;;;;47.15;23.95;;;;;;;4.42;100.00;103539.53;5074546;28;20495;-51
2022/01/23 07:31:42;;;;;;;46.55;23.77;;;;;;;4.43;100.00;103533.47;5074534;28;20048;-46
2022/01/23 07:34:11;;;;;;;45.83;23.23;;;;;;;4.42;100.00;103542.13;5074218;28;20047;-50
2022/01/23 07:36:41;;;;;;;44.63;23.33;;;;;;;4.43;100.00;103543.00;5073874;28;20094;-47
2022/01/23 07:39:09;;;;;;;44.75;22.15;;;;;;;4.45;100.00;103547.34;5073807;28;20047;-57
2022/01/23 07:41:37;;;;;;;43.30;22.42;;;;;;;4.47;100.00;103549.97;5073712;28;20056;-57
2022/01/23 07:44:06;;;;;;;44.85;22.42;;;;;;;4.47;100.00;103549.97;5073484;28;20048;-57
2022/01/23 07:46:34;;;;;;;40.65;23.02;;;;;;;4.47;100.00;103550.84;5073165;28;20048;-46
2022/01/23 07:49:03;;;;;;;38.45;21.17;;;;;;;4.47;100.00;103553.47;5073173;28;20106;-57
2022/01/23 07:51:31;;;;;;;42.30;22.02;;;;;;;4.49;100.00;103549.09;5073703;28;20072;-46
2022/01/23 07:54:00;;;;;;;43.10;22.15;;;;;;;4.51;100.00;103562.13;5073315;28;20539;-58
2022/01/23 07:56:28;;;;;;;41.35;21.10;;;;;;;4.49;100.00;103574.31;5072725;28;20071;-57
2022/01/23 07:58:57;;;;;;;42.40;21.88;;;;;;;4.49;100.00;103571.72;5072947;28;20060;-57
2022/01/23 08:01:25;;;;;;;40.42;21.67;;;;;;;4.50;100.00;103576.03;5072997;28;20111;-57
2022/01/23 08:03:53;;;;;;;40.30;21.23;;;;;;;4.53;100.00;103574.31;5072978;28;20048;-57
2022/01/23 08:06:28;;;;;;;42.60;21.70;;;;;;;4.52;100.00;103576.91;5073121;28;20414;-57
2022/01/23 08:08:57;;;;;;;40.25;21.50;;;;;;;4.50;100.00;103579.53;5072987;28;20503;-57
2022/01/23 08:11:26;;;;;;;43.60;20.80;;;;;;;4.52;100.00;103580.38;5071688;28;20105;-57
2022/01/23 08:13:54;;;;;;;40.53;22.05;;;;;;;4.52;100.00;103576.91;5072828;28;20040;-57
2022/01/23 08:16:22;;;;;;;43.65;22.95;;;;;;;4.54;100.00;103577.78;5073211;28;20067;-49
2022/01/23 08:18:50;;;;;;;45.92;23.00;;;;;;;4.56;100.00;103576.06;5073286;28;20043;-56
2022/01/23 08:21:18;;;;;;;40.67;21.23;;;;;;;4.55;100.00;103580.41;5072989;28;20109;-57
2022/01/23 08:23:46;;;;;;;40.50;20.98;;;;;;;4.54;100.00;103577.78;5071786;28;20525;-58
2022/01/23 08:26:15;;;;;;;41.58;22.88;;;;;;;4.54;100.00;103573.47;5073292;28;20376;-57
2022/01/23 08:28:45;;;;;;;39.80;22.15;;;;;;;4.56;100.00;103582.13;5072808;28;20045;-56
2022/01/23 08:31:13;;;;;;;38.28;21.02;;;;;;;4.57;100.00;103586.50;5072989;28;20514;-57
2022/01/23 08:33:41;;;;;;;42.50;22.52;;;;;;;4.55;100.00;103588.25;5072896;28;20131;-48
2022/01/23 08:36:09;;;;;;;42.80;21.80;;;;;;;4.56;100.00;103589.97;5072689;28;20054;-46
2022/01/23 08:38:37;;;;;;;45.88;23.02;;;;;;;4.59;100.00;103591.72;5071227;28;20079;-49
2022/01/23 08:43:54;;;;;;;40.63;22.83;;;;;;;4.64;100.00;103590.00;5038397;28;20056;-47
2022/01/23 08:46:23;;;;;;;40.28;23.27;;;;;;;4.67;100.00;103595.22;5073125;28;20063;-47
2022/01/23 08:48:56;;;;;;;43.92;23.17;;;;;;;4.69;100.00;103590.91;5072563;28;20123;-48
2022/01/23 08:51:24;;;;;;;40.05;21.85;;;;;;;4.71;100.00;103596.09;5072655;28;20518;-47
2022/01/23 08:53:53;;;;;;;42.40;22.95;;;;;;;4.73;100.00;103599.56;5072615;28;20046;-46
2022/01/23 08:56:21;;;;;;;42.05;23.52;;;;;;;4.73;100.00;103602.19;5072309;28;20059;-47
2022/01/23 08:58:49;;;;;;;44.20;24.10;;;;;;;4.77;100.00;103587.44;5072493;28;20479;-47
2022/01/23 09:01:19;;;;;;;43.17;22.80;;;;;;;4.81;100.00;103589.19;5071495;28;20056;-46
2022/01/23 09:03:47;;;;;;;39.35;22.25;;;;;;;4.82;100.00;103591.78;5087896;28;20143;-48
2022/01/23 09:06:16;;;;;;;43.38;24.10;;;;;;;4.85;100.00;103583.09;5072574;28;20052;-49
2022/01/23 09:08:45;;;;;;;41.17;22.08;;;;;;;4.84;100.00;103589.19;5072209;28;20369;-51
2022/01/23 09:11:25;;;;;;;39.70;21.25;;;;;;;4.84;100.00;103595.28;5072324;28;20060;-45
2022/01/23 09:14:06;;;;;;;42.65;21.50;;;;;;;4.85;100.00;103589.22;5072454;28;20071;-50
2022/01/23 09:16:38;;;;;;;39.28;21.98;;;;;;;4.89;100.00;103588.34;5072287;28;20059;-50
2022/01/23 09:19:06;;;;;;;40.45;21.33;;;;;;;4.88;100.00;103591.81;5071995;28;20070;-47
2022/01/23 09:21:35;;;;;;;41.65;20.70;;;;;;;4.88;100.00;103596.16;5072173;28;20076;-47
2022/01/23 09:24:03;;;;;;;36.78;20.30;;;;;;;4.91;100.00;103594.44;5072031;28;20036;-45
2022/01/23 09:26:33;;;;;;;38.42;19.85;;;;;;;4.93;100.00;103604.00;5072286;28;20052;-47
2022/01/23 09:29:11;;;;;;;39.42;20.83;;;;;;;4.97;100.00;103601.41;5071891;28;20499;-49
2022/01/23 09:31:48;;;;;;;37.67;20.55;;;;;;;5.02;100.00;103601.41;5071520;28;20522;-49
2022/01/23 09:34:18;;;;;;;35.72;19.25;;;;;;;5.05;100.00;103607.50;5071678;28;20049;-50
2022/01/23 09:36:46;;;;;;;37.65;19.38;;;;;;;5.08;100.00;103612.75;5072090;28;20056;-50
2022/01/23 09:39:15;;;;;;;35.20;19.23;;;;;;;5.11;100.00;103606.63;5075672;28;20045;-48
2022/01/23 09:42:04;;;;;;;33.58;18.13;;;;;;;5.07;100.00;103611.00;5071061;28;20053;-45
2022/01/23 09:44:38;;;;;;;35.20;19.15;;;;;;;5.08;100.00;103606.63;5076055;28;20040;-47
2022/01/23 09:47:09;;;;;;;32.42;18.83;;;;;;;5.14;100.00;103613.59;5080111;28;20055;-45
2022/01/23 09:49:37;;;;;;;36.13;20.15;;;;;;;5.16;100.00;103612.75;5078230;28;20495;-47
2022/01/23 09:52:07;;;;;;;36.70;19.42;;;;;;;5.21;100.00;103615.38;5072703;28;20078;-48
2022/01/23 09:54:37;;;;;;;33.97;19.52;;;;;;;5.25;100.00;103617.97;5078810;28;20036;-48
2022/01/23 09:57:08;;;;;;;39.85;20.63;;;;;;;5.28;100.00;103624.94;5077176;28;20060;-49
2022/01/23 09:59:37;;;;;;;35.65;20.30;;;;;;;5.32;100.00;103620.63;5073384;28;20495;-50
2022/01/23 10:02:05;;;;;;;35.55;18.83;;;;;;;5.35;100.00;103623.22;5078707;28;20478;-47
2022/01/23 10:04:35;;;;;;;34.58;19.80;;;;;;;5.36;100.00;103614.53;5070573;28;20041;-50
2022/01/23 10:07:07;;;;;;;32.72;18.73;;;;;;;5.37;100.00;103614.53;5078719;28;20066;-49
2022/01/23 10:09:37;;;;;;;26.17;14.88;;;;;;;5.41;100.00;103620.59;5073541;28;20519;-45
2022/01/23 10:12:08;;;;;;;26.58;15.18;;;;;;;5.43;100.00;103613.66;5091624;28;20055;-47
2022/01/23 10:14:36;;;;;;;29.95;15.55;;;;;;;5.45;100.00;103619.72;5082314;28;20055;-50
2022/01/23 10:17:09;;;;;;;26.38;15.63;;;;;;;5.49;100.00;103623.22;5074828;28;20110;-50
2022/01/23 10:19:39;;;;;;;28.33;15.35;;;;;;;5.51;100.00;103624.97;5074869;28;20040;-48
2022/01/23 10:22:12;;;;;;;29.55;16.40;;;;;;;5.52;100.00;103624.09;5089670;28;20356;-50
2022/01/23 10:24:40;;;;;;;27.15;14.98;;;;;;;5.55;100.00;103621.50;5082134;28;20070;-45
2022/01/23 10:27:08;;;;;;;25.08;13.70;;;;;;;5.57;100.00;103624.09;5084958;28;20494;-45
2022/01/23 10:29:42;;;;;;;26.27;15.45;;;;;;;5.62;100.00;103624.97;5079794;28;20052;-47
2022/01/23 10:32:14;;;;;;;22.75;13.18;;;;;;;5.66;100.00;103623.22;5075790;28;20453;-47
2022/01/23 10:34:50;;;;;;;23.02;11.85;;;;;;;5.69;100.00;103631.06;5074493;28;21006;-48
2022/01/23 10:37:28;;;;;;;21.58;12.15;;;;;;;5.71;100.00;103630.19;5083239;28;20047;-47
2022/01/23 10:40:06;;;;;;;23.77;12.73;;;;;;;5.75;100.00;103628.44;5074331;28;20047;-57
2022/01/23 10:42:53;;;;;;;;;;;;;;;5.78;100.00;103625.84;5082191;28;20075;-57
2022/01/23 10:48:36;;;;;;;24.20;13.70;;;;;;;5.85;100.00;103616.25;5075534;28;20417;-57
2022/01/23 10:51:24;;;;;;;25.30;13.88;;;;;;;5.87;100.00;103615.38;5082043;28;20067;-57
2022/01/23 10:54:05;;;;;;;25.90;14.35;;;;;;;5.89;100.00;103616.25;5084641;28;20051;-57
2022/01/23 10:56:38;;;;;;;26.80;15.13;;;;;;;5.88;100.00;103614.50;5083643;28;20044;-58
2022/01/23 10:59:09;;;;;;;23.65;13.77;;;;;;;5.94;100.00;103605.78;5074363;28;20395;-57
2022/01/23 11:01:38;;;;;;;25.10;14.05;;;;;;;5.90;100.00;103609.28;5081751;28;20044;-59
2022/01/23 11:04:10;;;;;;;28.92;15.00;;;;;;;5.96;100.00;103608.38;5076338;28;20043;-57
2022/01/23 11:06:53;;;;;;;28.13;16.13;;;;;;;5.99;100.00;103608.44;5076333;28;20045;-56
2022/01/23 11:09:27;;;;;;;27.02;15.73;;;;;;;5.95;100.00;103602.31;5084837;28;20139;-58
2022/01/23 11:12:01;;;;;;;31.05;18.08;;;;;;;6.01;100.00;103606.69;5081273;28;20056;-59
2022/01/23 11:17:24;;;;;;;25.77;14.57;;;;;;;6.08;100.00;103597.94;5078978;28;20046;-57
2022/01/23 11:20:00;;;;;;;26.02;14.88;;;;;;;6.02;100.00;103597.97;5081627;28;20044;-57
2022/01/23 11:22:34;;;;;;;26.88;15.18;;;;;;;6.06;100.00;103597.97;5105227;27;20063;-58
2022/01/23 11:25:09;;;;;;;26.35;14.90;;;;;;;6.08;100.00;103593.59;5082287;28;20135;-57
2022/01/23 11:27:39;;;;;;;24.70;14.45;;;;;;;6.10;100.00;103591.00;5081088;28;20406;-58
2022/01/23 11:30:11;;;;;;;26.23;13.48;;;;;;;6.09;100.00;103581.41;5081181;28;20039;-56
2022/01/23 11:32:42;;;;;;;23.52;12.65;;;;;;;6.17;100.00;103586.63;5075573;28;20052;-58
2022/01/23 11:35:13;;;;;;;17.85;10.80;;;;;;;6.18;100.00;103586.63;5081253;28;20055;-57
2022/01/23 11:37:48;;;;;;;17.10;9.43;;;;;;;6.18;100.00;103588.38;5082281;28;20052;-57
2022/01/23 11:54:36;;;;;;;16.17;9.02;;;;;;;6.15;100.00;103590.97;5076545;28;20047;-57
2022/01/23 11:57:04;;;;;;;13.88;7.38;;;;;;;6.19;100.00;103588.34;5078721;28;20409;-57
2022/01/23 11:59:35;;;;;;;14.40;8.50;;;;;;;6.21;100.00;103591.81;5083956;28;20119;-58
2022/01/23 12:02:33;;;;;;;13.20;7.95;;;;;;;6.12;100.00;103583.16;5074858;28;20525;-58
2022/01/23 12:05:32;;;;;;;13.75;7.28;;;;;;;6.21;100.00;103578.75;5081352;28;20044;-58
2022/01/23 12:08:33;;;;;;;15.07;7.45;;;;;;;6.22;100.00;103577.03;5083570;28;20052;-57
2022/01/23 12:17:22;;;;;;;11.77;6.72;;;;;;;6.24;100.00;103562.19;5073500;28;20045;-59
2022/01/23 12:19:53;;;;;;;14.65;7.47;;;;;;;6.30;100.00;103559.56;5073006;28;20044;-57
2022/01/23 12:22:45;;;;;;;14.57;7.47;;;;;;;6.34;100.00;103558.69;5073096;28;20041;-58
2022/01/23 12:25:17;;;;;;;13.68;6.82;;;;;;;6.38;100.00;103559.53;5072814;28;20056;-58
2022/01/23 12:27:47;;;;;;;12.32;6.78;;;;;;;6.42;100.00;103556.03;5073057;28;20040;-57
2022/01/23 12:30:40;;;;;;;11.23;6.22;;;;;;;6.37;100.00;103553.44;5072983;28;20090;-58
2022/01/23 12:33:19;;;;;;;;;;;;;;;6.42;100.00;103556.03;5073389;28;20387;-58
2022/01/23 12:35:50;;;;;;;12.90;6.60;;;;;;;6.38;100.00;103555.19;5072456;28;19927;-58
2022/01/23 12:38:19;;;;;;;12.10;6.63;;;;;;;6.34;100.00;103558.69;5072724;28;20525;-58
2022/01/23 12:40:49;;;;;;;13.45;7.28;;;;;;;6.35;100.00;103551.69;5072614;28;20068;-59
2022/01/23 12:43:21;;;;;;;14.45;7.45;;;;;;;6.32;100.00;103551.72;5072752;28;20053;-58
2022/01/23 12:45:57;;;;;;;13.80;6.80;;;;;;;6.25;100.00;103546.50;5072866;28;20048;-58
2022/01/23 12:48:49;;;;;;;11.80;6.20;;;;;;;6.33;100.00;103550.84;5072783;28;20041;-58
2022/01/23 12:51:39;;;;;;;13.65;7.25;;;;;;;6.11;100.00;103540.47;5072679;28;20070;-59
2022/01/23 12:54:22;;;;;;;12.10;6.75;;;;;;;6.20;100.00;103545.69;5072576;28;20056;-58
2022/01/23 12:56:52;;;;;;;12.65;6.50;;;;;;;6.22;100.00;103541.28;5070977;28;20048;-58
2022/01/23 12:59:28;;;;;;;12.20;6.57;;;;;;;6.27;100.00;103536.03;5072305;28;20102;-57
2022/01/23 13:02:06;;;;;;;13.60;6.70;;;;;;;6.31;100.00;103534.28;5072156;28;20049;-57
2022/01/23 13:04:40;;;;;;;13.63;6.32;;;;;;;6.34;100.00;103532.53;5072392;28;20066;-58
2022/01/23 13:07:24;;;;;;;9.75;4.53;;;;;;;6.37;100.00;103527.28;5072205;28;20483;-57
2022/01/23 13:09:58;;;;;;;11.35;6.05;;;;;;;6.40;100.00;103532.50;5072088;28;20044;-57
2022/01/23 13:18:09;;;;;;;12.55;6.38;;;;;;;6.47;100.00;103533.34;5058709;28;20052;-58
2022/01/23 13:26:42;;;;;;;5.85;2.20;;;;;;;6.54;100.00;103527.19;5072181;28;20036;-56
2022/01/23 13:32:07;;;;;;;3.25;1.23;;;;;;;6.53;95.60;103529.81;5071984;28;20402;-58
2022/01/23 13:34:39;;;;;;;4.30;1.50;;;;;;;6.52;98.86;103526.34;5072315;28;20076;-58
2022/01/23 13:37:10;;;;;;;3.08;1.55;;;;;;;6.51;100.00;103527.22;5071938;28;20519;-59
2022/01/23 13:39:45;;;;;;;3.08;1.30;;;;;;;6.54;100.00;103524.59;5070827;28;20080;-57
2022/01/23 13:42:32;;;;;;;3.08;1.48;;;;;;;6.57;97.62;103524.59;5071791;28;20087;-57
2022/01/23 13:48:45;;;;;;;3.25;1.45;;;;;;;6.66;99.50;103520.19;5075918;28;20119;-58
2022/01/23 13:57:37;;;;;;;3.72;1.50;;;;;;;6.68;97.25;103521.03;5075764;28;20044;-58
2022/01/23 14:00:00;;;;;;;3.92;1.65;;;;;;;6.64;100.00;103514.06;5075824;28;20047;-58
2022/01/23 14:02:32;;;;;;;6.75;3.13;;;;;;;6.50;100.00;103517.63;5075638;28;20041;-58
2022/01/23 14:05:11;;;;;;;6.85;3.40;;;;;;;6.48;100.00;103515.94;5075494;28;20067;-57
2022/01/23 14:07:40;;;;;;;8.38;3.30;;;;;;;6.47;100.00;103516.81;5075419;28;20040;-57
2022/01/23 14:10:15;;;;;;;7.65;3.67;;;;;;;6.54;100.00;103515.88;5075543;28;20064;-57
2022/01/23 14:12:45;;;;;;;7.55;3.33;;;;;;;6.55;99.91;103518.47;5075581;28;20044;-57
2022/01/23 14:15:21;;;;;;;9.20;3.78;;;;;;;6.62;99.85;103511.47;5075577;28;20049;-57
2022/01/23 14:18:01;;;;;;;6.90;3.22;;;;;;;6.66;98.97;103512.34;5075423;28;20048;-57
2022/01/23 14:20:32;;;;;;;7.78;3.63;;;;;;;6.69;98.50;103509.69;5075269;28;20051;-57
2022/01/23 14:23:11;;;;;;;7.85;3.60;;;;;;;6.59;99.30;103511.50;5075361;28;20045;-58
2022/01/23 14:25:46;;;;;;;6.65;3.38;;;;;;;6.52;97.73;103510.66;5075420;28;20063;-57
2022/01/23 14:28:19;;;;;;;7.15;3.00;;;;;;;6.57;97.99;103514.13;5075059;28;20495;-57
2022/01/23 14:30:50;;;;;;;6.82;3.00;;;;;;;6.62;98.20;103514.09;5074950;28;20052;-49